sensor_id;sensor_type;location;lat;lon;timestamp;temperature;humidity
75799;DHT22;65035;44.726;37.764;2023-05-29T00:00:40;24.11;65.76
75799;DHT22;65035;44.726;37.764;2023-05-29T00:02:05;24.11;65.86
75799;DHT22;65035;44.726;37.764;2023-05-29T00:03:23;24.09;65.84
75799;DHT22;65035;44.726;37.764;2023-05-29T00:04:43;24.09;65.11
75799;DHT22;65035;44.726;37.764;2023-05-29T00:06:03;24.10;65.11
75799;DHT22;65035;44.726;37.764;2023-05-29T00:07:23;24.10;65.27
75799;DHT22;65035;44.726;37.764;2023-05-29T00:08:32;24.09;65.49
75799;DHT22;65035;44.726;37.764;2023-05-29T00:09:56;24.10;65.62
75799;DHT22;65035;44.726;37.764;2023-05-29T00:11:06;24.11;65.60
75799;DHT22;65035;44.726;37.764;2023-05-29T00:12:23;24.12;65.57
75799;DHT22;65035;44.726;37.764;2023-05-29T00:13:28;24.11;65.52
75799;DHT22;65035;44.726;37.764;2023-05-29T00:14:52;24.12;65.68
75799;DHT22;65035;44.726;37.764;2023-05-29T00:16:09;24.12;65.67
75799;DHT22;65035;44.726;37.764;2023-05-29T00:17:30;24.12;65.60
75799;DHT22;65035;44.726;37.764;2023-05-29T00:18:38;24.13;65.63
75799;DHT22;65035;44.726;37.764;2023-05-29T00:20:07;24.14;65.72
75799;DHT22;65035;44.726;37.764;2023-05-29T00:21:16;24.14;65.66
75799;DHT22;65035;44.726;37.764;2023-05-29T00:22:21;24.12;65.97
75799;DHT22;65035;44.726;37.764;2023-05-29T00:23:26;24.14;65.85
75799;DHT22;65035;44.726;37.764;2023-05-29T00:24:50;24.12;65.95
75799;DHT22;65035;44.726;37.764;2023-05-29T00:25:54;24.14;65.90
75799;DHT22;65035;44.726;37.764;2023-05-29T00:27:21;24.13;65.82
75799;DHT22;65035;44.726;37.764;2023-05-29T00:28:24;24.13;65.92
75799;DHT22;65035;44.726;37.764;2023-05-29T00:29:29;24.13;65.83
75799;DHT22;65035;44.726;37.764;2023-05-29T00:30:33;24.12;65.78
75799;DHT22;65035;44.726;37.764;2023-05-29T00:31:57;24.12;65.94
75799;DHT22;65035;44.726;37.764;2023-05-29T00:33:10;24.11;65.95
75799;DHT22;65035;44.726;37.764;2023-05-29T00:34:37;24.11;65.95
75799;DHT22;65035;44.726;37.764;2023-05-29T00:35:54;24.12;65.95
75799;DHT22;65035;44.726;37.764;2023-05-29T00:36:59;24.10;66.01
75799;DHT22;65035;44.726;37.764;2023-05-29T00:38:24;24.10;65.99
75799;DHT22;65035;44.726;37.764;2023-05-29T00:39:29;24.11;65.96
75799;DHT22;65035;44.726;37.764;2023-05-29T00:40:53;24.10;65.88
75799;DHT22;65035;44.726;37.764;2023-05-29T00:41:57;24.10;65.98
75799;DHT22;65035;44.726;37.764;2023-05-29T00:43:06;24.09;66.03
75799;DHT22;65035;44.726;37.764;2023-05-29T00:44:21;24.09;65.63
75799;DHT22;65035;44.726;37.764;2023-05-29T00:45:25;24.09;65.46
75799;DHT22;65035;44.726;37.764;2023-05-29T00:46:32;24.10;65.69
75799;DHT22;65035;44.726;37.764;2023-05-29T00:47:37;24.10;66.04
75799;DHT22;65035;44.726;37.764;2023-05-29T00:48:54;24.11;65.84
75799;DHT22;65035;44.726;37.764;2023-05-29T00:50:21;24.10;65.91
75799;DHT22;65035;44.726;37.764;2023-05-29T00:51:42;24.12;65.86
75799;DHT22;65035;44.726;37.764;2023-05-29T00:53:01;24.12;65.91
75799;DHT22;65035;44.726;37.764;2023-05-29T00:54:22;24.11;65.98
75799;DHT22;65035;44.726;37.764;2023-05-29T00:55:47;24.12;65.99
75799;DHT22;65035;44.726;37.764;2023-05-29T00:57:06;24.12;65.82
75799;DHT22;65035;44.726;37.764;2023-05-29T00:58:17;24.12;65.84
75799;DHT22;65035;44.726;37.764;2023-05-29T00:59:37;24.12;65.75
75799;DHT22;65035;44.726;37.764;2023-05-29T01:00:46;24.11;65.89
75799;DHT22;65035;44.726;37.764;2023-05-29T01:02:03;24.12;65.86
75799;DHT22;65035;44.726;37.764;2023-05-29T01:03:22;24.12;65.88
75799;DHT22;65035;44.726;37.764;2023-05-29T01:04:39;24.11;65.87
75799;DHT22;65035;44.726;37.764;2023-05-29T01:05:57;24.12;65.85
75799;DHT22;65035;44.726;37.764;2023-05-29T01:07:14;24.11;65.90
75799;DHT22;65035;44.726;37.764;2023-05-29T01:08:31;24.11;65.94
75799;DHT22;65035;44.726;37.764;2023-05-29T01:09:51;24.11;65.96
75799;DHT22;65035;44.726;37.764;2023-05-29T01:11:54;24.09;65.88
75799;DHT22;65035;44.726;37.764;2023-05-29T01:13:31;24.09;65.97
75799;DHT22;65035;44.726;37.764;2023-05-29T01:15:10;24.10;66.07
75799;DHT22;65035;44.726;37.764;2023-05-29T01:16:40;24.10;65.98
75799;DHT22;65035;44.726;37.764;2023-05-29T01:18:31;24.09;66.00
75799;DHT22;65035;44.726;37.764;2023-05-29T01:27:16;24.05;66.40
75799;DHT22;65035;44.726;37.764;2023-05-29T01:28:57;24.04;66.30
75799;DHT22;65035;44.726;37.764;2023-05-29T01:30:18;24.04;66.39
75799;DHT22;65035;44.726;37.764;2023-05-29T01:31:39;24.04;66.28
75799;DHT22;65035;44.726;37.764;2023-05-29T01:32:57;24.05;66.33
75799;DHT22;65035;44.726;37.764;2023-05-29T01:34:18;24.04;66.34
75799;DHT22;65035;44.726;37.764;2023-05-29T01:35:34;24.04;66.30
75799;DHT22;65035;44.726;37.764;2023-05-29T01:36:52;24.05;66.31
75799;DHT22;65035;44.726;37.764;2023-05-29T01:38:09;24.04;66.19
75799;DHT22;65035;44.726;37.764;2023-05-29T01:39:29;24.04;66.15
75799;DHT22;65035;44.726;37.764;2023-05-29T01:40:47;24.05;65.85
75799;DHT22;65035;44.726;37.764;2023-05-29T01:42:08;24.04;65.80
75799;DHT22;65035;44.726;37.764;2023-05-29T01:43:25;24.04;66.11
75799;DHT22;65035;44.726;37.764;2023-05-29T01:44:43;24.04;65.97
75799;DHT22;65035;44.726;37.764;2023-05-29T01:46:01;24.04;66.43
75799;DHT22;65035;44.726;37.764;2023-05-29T01:47:18;24.03;66.52
75799;DHT22;65035;44.726;37.764;2023-05-29T01:49:06;24.03;66.62
75799;DHT22;65035;44.726;37.764;2023-05-29T01:50:24;24.03;66.41
75799;DHT22;65035;44.726;37.764;2023-05-29T01:51:43;24.03;66.53
75799;DHT22;65035;44.726;37.764;2023-05-29T01:52:50;24.02;66.41
75799;DHT22;65035;44.726;37.764;2023-05-29T01:54:15;24.01;66.49
75799;DHT22;65035;44.726;37.764;2023-05-29T01:55:19;24.01;66.53
75799;DHT22;65035;44.726;37.764;2023-05-29T01:56:37;24.02;66.53
75799;DHT22;65035;44.726;37.764;2023-05-29T01:57:43;24.03;66.49
75799;DHT22;65035;44.726;37.764;2023-05-29T01:58:48;24.02;66.40
75799;DHT22;65035;44.726;37.764;2023-05-29T02:00:13;24.04;66.34
75799;DHT22;65035;44.726;37.764;2023-05-29T02:01:56;24.03;66.36
75799;DHT22;65035;44.726;37.764;2023-05-29T02:03:25;24.02;66.36
75799;DHT22;65035;44.726;37.764;2023-05-29T02:04:33;24.05;66.24
75799;DHT22;65035;44.726;37.764;2023-05-29T02:05:37;24.03;66.36
75799;DHT22;65035;44.726;37.764;2023-05-29T02:07:01;24.04;66.40
75799;DHT22;65035;44.726;37.764;2023-05-29T02:08:05;24.04;66.36
75799;DHT22;65035;44.726;37.764;2023-05-29T02:09:09;24.04;66.22
75799;DHT22;65035;44.726;37.764;2023-05-29T02:10:33;24.05;66.25
75799;DHT22;65035;44.726;37.764;2023-05-29T02:11:44;24.04;66.31
75799;DHT22;65035;44.726;37.764;2023-05-29T02:12:50;24.04;66.34
75799;DHT22;65035;44.726;37.764;2023-05-29T02:14:00;24.03;66.32
75799;DHT22;65035;44.726;37.764;2023-05-29T02:15:23;24.03;66.29
75799;DHT22;65035;44.726;37.764;2023-05-29T02:16:28;24.03;66.40
75799;DHT22;65035;44.726;37.764;2023-05-29T02:17:33;24.02;66.43
75799;DHT22;65035;44.726;37.764;2023-05-29T02:18:38;24.03;66.43
75799;DHT22;65035;44.726;37.764;2023-05-29T02:19:43;24.02;66.43
75799;DHT22;65035;44.726;37.764;2023-05-29T02:20:48;24.02;66.34
75799;DHT22;65035;44.726;37.764;2023-05-29T02:21:57;24.03;66.18
75799;DHT22;65035;44.726;37.764;2023-05-29T02:23:01;24.04;66.30
75799;DHT22;65035;44.726;37.764;2023-05-29T02:24:26;24.04;66.18
75799;DHT22;65035;44.726;37.764;2023-05-29T02:25:31;24.04;66.22
75799;DHT22;65035;44.726;37.764;2023-05-29T02:26:35;24.04;66.25
75799;DHT22;65035;44.726;37.764;2023-05-29T02:27:55;24.03;66.28
75799;DHT22;65035;44.726;37.764;2023-05-29T02:29:00;24.03;66.18
75799;DHT22;65035;44.726;37.764;2023-05-29T02:30:23;24.03;66.30
75799;DHT22;65035;44.726;37.764;2023-05-29T02:31:47;24.03;66.22
75799;DHT22;65035;44.726;37.764;2023-05-29T02:32:51;24.04;66.19
75799;DHT22;65035;44.726;37.764;2023-05-29T02:33:56;24.05;66.15
75799;DHT22;65035;44.726;37.764;2023-05-29T02:35:02;24.05;66.00
75799;DHT22;65035;44.726;37.764;2023-05-29T02:36:19;24.06;66.14
75799;DHT22;65035;44.726;37.764;2023-05-29T02:37:37;24.05;66.21
75799;DHT22;65035;44.726;37.764;2023-05-29T02:38:41;24.04;66.29
75799;DHT22;65035;44.726;37.764;2023-05-29T02:39:59;24.04;66.34
75799;DHT22;65035;44.726;37.764;2023-05-29T02:41:06;24.05;66.21
75799;DHT22;65035;44.726;37.764;2023-05-29T02:42:10;24.03;66.33
75799;DHT22;65035;44.726;37.764;2023-05-29T02:43:30;24.04;66.36
75799;DHT22;65035;44.726;37.764;2023-05-29T02:44:33;24.02;66.36
75799;DHT22;65035;44.726;37.764;2023-05-29T02:45:37;24.04;66.28
75799;DHT22;65035;44.726;37.764;2023-05-29T02:46:50;24.01;66.33
75799;DHT22;65035;44.726;37.764;2023-05-29T02:48:14;24.03;66.31
75799;DHT22;65035;44.726;37.764;2023-05-29T02:49:20;24.03;66.28
75799;DHT22;65035;44.726;37.764;2023-05-29T02:50:43;24.02;66.35
75799;DHT22;65035;44.726;37.764;2023-05-29T02:51:52;24.02;66.33
75799;DHT22;65035;44.726;37.764;2023-05-29T02:53:13;24.02;66.39
75799;DHT22;65035;44.726;37.764;2023-05-29T02:54:18;24.03;66.43
75799;DHT22;65035;44.726;37.764;2023-05-29T02:55:42;24.01;66.38
75799;DHT22;65035;44.726;37.764;2023-05-29T02:57:18;24.01;66.24
75799;DHT22;65035;44.726;37.764;2023-05-29T02:58:42;24.01;66.28
75799;DHT22;65035;44.726;37.764;2023-05-29T02:59:49;24.00;66.27
75799;DHT22;65035;44.726;37.764;2023-05-29T03:01:10;24.01;66.26
75799;DHT22;65035;44.726;37.764;2023-05-29T03:02:30;24.00;66.17
75799;DHT22;65035;44.726;37.764;2023-05-29T03:03:52;24.01;66.19
75799;DHT22;65035;44.726;37.764;2023-05-29T03:04:58;24.00;66.17
75799;DHT22;65035;44.726;37.764;2023-05-29T03:06:03;24.01;66.11
75799;DHT22;65035;44.726;37.764;2023-05-29T03:07:27;24.00;66.11
75799;DHT22;65035;44.726;37.764;2023-05-29T03:08:56;24.00;65.93
75799;DHT22;65035;44.726;37.764;2023-05-29T03:10:09;24.01;65.98
75799;DHT22;65035;44.726;37.764;2023-05-29T03:11:14;24.01;66.06
75799;DHT22;65035;44.726;37.764;2023-05-29T03:12:19;24.00;65.94
75799;DHT22;65035;44.726;37.764;2023-05-29T03:13:29;24.01;65.95
75799;DHT22;65035;44.726;37.764;2023-05-29T03:14:39;24.01;65.95
75799;DHT22;65035;44.726;37.764;2023-05-29T03:15:46;24.01;65.88
75799;DHT22;65035;44.726;37.764;2023-05-29T03:17:12;24.01;65.82
75799;DHT22;65035;44.726;37.764;2023-05-29T03:18:18;24.00;65.85
75799;DHT22;65035;44.726;37.764;2023-05-29T03:19:23;24.00;65.79
75799;DHT22;65035;44.726;37.764;2023-05-29T03:20:29;24.00;65.76
75799;DHT22;65035;44.726;37.764;2023-05-29T03:21:37;24.01;65.62
75799;DHT22;65035;44.726;37.764;2023-05-29T03:22:46;24.01;65.59
75799;DHT22;65035;44.726;37.764;2023-05-29T03:23:55;24.01;65.59
75799;DHT22;65035;44.726;37.764;2023-05-29T03:25:00;24.01;65.46
75799;DHT22;65035;44.726;37.764;2023-05-29T03:26:05;24.03;65.57
75799;DHT22;65035;44.726;37.764;2023-05-29T03:27:15;24.02;65.59
75799;DHT22;65035;44.726;37.764;2023-05-29T03:28:40;24.03;65.47
75799;DHT22;65035;44.726;37.764;2023-05-29T03:30:00;24.04;65.37
75799;DHT22;65035;44.726;37.764;2023-05-29T03:31:14;24.03;65.40
75799;DHT22;65035;44.726;37.764;2023-05-29T03:32:19;24.04;65.42
75799;DHT22;65035;44.726;37.764;2023-05-29T03:33:43;24.04;65.24
75799;DHT22;65035;44.726;37.764;2023-05-29T03:34:57;24.05;65.36
75799;DHT22;65035;44.726;37.764;2023-05-29T03:36:02;24.05;65.27
75799;DHT22;65035;44.726;37.764;2023-05-29T03:37:22;24.06;65.32
75799;DHT22;65035;44.726;37.764;2023-05-29T03:38:57;24.05;65.33
75799;DHT22;65035;44.726;37.764;2023-05-29T03:40:03;24.06;65.35
75799;DHT22;65035;44.726;37.764;2023-05-29T03:41:09;24.08;65.34
75799;DHT22;65035;44.726;37.764;2023-05-29T03:42:18;24.09;65.43
75799;DHT22;65035;44.726;37.764;2023-05-29T03:43:37;24.08;65.52
75799;DHT22;65035;44.726;37.764;2023-05-29T03:44:56;24.09;65.56
75799;DHT22;65035;44.726;37.764;2023-05-29T03:46:16;24.09;65.63
75799;DHT22;65035;44.726;37.764;2023-05-29T03:47:20;24.10;65.58
75799;DHT22;65035;44.726;37.764;2023-05-29T03:48:29;24.11;65.56
75799;DHT22;65035;44.726;37.764;2023-05-29T03:49:47;24.11;65.47
75799;DHT22;65035;44.726;37.764;2023-05-29T03:51:10;24.11;65.37
75799;DHT22;65035;44.726;37.764;2023-05-29T03:52:27;24.12;65.38
75799;DHT22;65035;44.726;37.764;2023-05-29T03:53:32;24.12;65.34
75799;DHT22;65035;44.726;37.764;2023-05-29T03:54:45;24.13;65.35
75799;DHT22;65035;44.726;37.764;2023-05-29T03:55:51;24.13;65.28
75799;DHT22;65035;44.726;37.764;2023-05-29T03:56:57;24.13;65.30
75799;DHT22;65035;44.726;37.764;2023-05-29T03:58:35;24.13;65.23
75799;DHT22;65035;44.726;37.764;2023-05-29T03:59:55;24.15;65.26
75799;DHT22;65035;44.726;37.764;2023-05-29T04:01:15;24.15;65.50
75799;DHT22;65035;44.726;37.764;2023-05-29T04:02:20;24.16;65.25
75799;DHT22;65035;44.726;37.764;2023-05-29T04:03:38;24.16;65.78
75799;DHT22;65035;44.726;37.764;2023-05-29T04:04:44;24.17;65.51
75799;DHT22;65035;44.726;37.764;2023-05-29T04:05:49;24.16;65.27
75799;DHT22;65035;44.726;37.764;2023-05-29T04:07:15;24.17;65.19
75799;DHT22;65035;44.726;37.764;2023-05-29T04:08:26;24.17;65.19
75799;DHT22;65035;44.726;37.764;2023-05-29T04:09:47;24.19;65.15
75799;DHT22;65035;44.726;37.764;2023-05-29T04:10:56;24.19;65.14
75799;DHT22;65035;44.726;37.764;2023-05-29T04:12:13;24.18;65.00
75799;DHT22;65035;44.726;37.764;2023-05-29T04:13:35;24.19;65.30
75799;DHT22;65035;44.726;37.764;2023-05-29T04:14:46;24.20;65.29
75799;DHT22;65035;44.726;37.764;2023-05-29T04:15:50;24.19;65.13
75799;DHT22;65035;44.726;37.764;2023-05-29T04:17:28;24.18;65.07
75799;DHT22;65035;44.726;37.764;2023-05-29T04:18:35;24.18;65.03
75799;DHT22;65035;44.726;37.764;2023-05-29T04:19:39;24.18;64.95
75799;DHT22;65035;44.726;37.764;2023-05-29T04:20:49;24.18;65.28
75799;DHT22;65035;44.726;37.764;2023-05-29T04:22:13;24.18;65.01
75799;DHT22;65035;44.726;37.764;2023-05-29T04:23:18;24.18;65.07
75799;DHT22;65035;44.726;37.764;2023-05-29T04:24:24;24.18;64.96
75799;DHT22;65035;44.726;37.764;2023-05-29T04:25:29;24.18;64.98
75799;DHT22;65035;44.726;37.764;2023-05-29T04:26:40;24.18;64.92
75799;DHT22;65035;44.726;37.764;2023-05-29T04:28:03;24.19;64.92
75799;DHT22;65035;44.726;37.764;2023-05-29T04:29:11;24.18;64.88
75799;DHT22;65035;44.726;37.764;2023-05-29T04:30:20;24.19;64.99
75799;DHT22;65035;44.726;37.764;2023-05-29T04:31:43;24.19;64.95
75799;DHT22;65035;44.726;37.764;2023-05-29T04:33:08;24.20;64.79
75799;DHT22;65035;44.726;37.764;2023-05-29T04:34:15;24.19;64.83
75799;DHT22;65035;44.726;37.764;2023-05-29T04:35:22;24.19;65.26
75799;DHT22;65035;44.726;37.764;2023-05-29T04:36:45;24.20;64.96
75799;DHT22;65035;44.726;37.764;2023-05-29T04:37:50;24.23;65.17
75799;DHT22;65035;44.726;37.764;2023-05-29T04:39:05;24.20;65.03
75799;DHT22;65035;44.726;37.764;2023-05-29T04:40:27;24.21;65.06
75799;DHT22;65035;44.726;37.764;2023-05-29T04:41:32;24.21;64.92
75799;DHT22;65035;44.726;37.764;2023-05-29T04:42:39;24.21;65.07
75799;DHT22;65035;44.726;37.764;2023-05-29T04:43:45;24.23;65.01
75799;DHT22;65035;44.726;37.764;2023-05-29T04:44:52;24.19;65.02
75799;DHT22;65035;44.726;37.764;2023-05-29T04:45:58;24.21;64.98
75799;DHT22;65035;44.726;37.764;2023-05-29T04:47:11;24.23;64.92
75799;DHT22;65035;44.726;37.764;2023-05-29T04:48:15;24.21;64.92
75799;DHT22;65035;44.726;37.764;2023-05-29T04:49:39;24.21;64.92
75799;DHT22;65035;44.726;37.764;2023-05-29T04:50:57;24.23;64.97
75799;DHT22;65035;44.726;37.764;2023-05-29T04:52:23;24.23;64.88
75799;DHT22;65035;44.726;37.764;2023-05-29T04:53:50;24.24;64.96
75799;DHT22;65035;44.726;37.764;2023-05-29T04:54:55;24.24;64.84
75799;DHT22;65035;44.726;37.764;2023-05-29T04:56:01;24.24;64.86
75799;DHT22;65035;44.726;37.764;2023-05-29T04:57:05;24.23;64.92
75799;DHT22;65035;44.726;37.764;2023-05-29T04:58:29;24.24;64.79
75799;DHT22;65035;44.726;37.764;2023-05-29T04:59:35;24.21;64.82
75799;DHT22;65035;44.726;37.764;2023-05-29T05:00:58;24.24;64.72
75799;DHT22;65035;44.726;37.764;2023-05-29T05:02:08;24.23;64.74
75799;DHT22;65035;44.726;37.764;2023-05-29T05:03:11;24.21;64.75
75799;DHT22;65035;44.726;37.764;2023-05-29T05:04:48;24.24;64.87
75799;DHT22;65035;44.726;37.764;2023-05-29T05:05:54;24.23;64.87
75799;DHT22;65035;44.726;37.764;2023-05-29T05:07:18;24.24;64.82
75799;DHT22;65035;44.726;37.764;2023-05-29T05:08:26;24.24;64.82
75799;DHT22;65035;44.726;37.764;2023-05-29T05:09:31;24.21;64.82
75799;DHT22;65035;44.726;37.764;2023-05-29T05:10:38;24.21;64.78
75799;DHT22;65035;44.726;37.764;2023-05-29T05:11:47;24.24;64.78
75799;DHT22;65035;44.726;37.764;2023-05-29T05:12:52;24.24;64.73
75799;DHT22;65035;44.726;37.764;2023-05-29T05:13:58;24.24;64.79
75799;DHT22;65035;44.726;37.764;2023-05-29T05:15:09;24.24;64.75
75799;DHT22;65035;44.726;37.764;2023-05-29T05:16:15;24.25;64.66
75799;DHT22;65035;44.726;37.764;2023-05-29T05:17:21;24.24;64.72
75799;DHT22;65035;44.726;37.764;2023-05-29T05:18:26;24.24;64.63
75799;DHT22;65035;44.726;37.764;2023-05-29T05:19:53;24.23;64.72
75799;DHT22;65035;44.726;37.764;2023-05-29T05:20:58;24.24;64.71
75799;DHT22;65035;44.726;37.764;2023-05-29T05:22:02;24.24;64.70
75799;DHT22;65035;44.726;37.764;2023-05-29T05:23:26;24.24;64.72
75799;DHT22;65035;44.726;37.764;2023-05-29T05:24:31;24.24;64.66
75799;DHT22;65035;44.726;37.764;2023-05-29T05:25:39;24.24;64.64
75799;DHT22;65035;44.726;37.764;2023-05-29T05:27:04;24.23;64.63
75799;DHT22;65035;44.726;37.764;2023-05-29T05:28:09;24.23;64.71
75799;DHT22;65035;44.726;37.764;2023-05-29T05:29:14;24.24;64.70
75799;DHT22;65035;44.726;37.764;2023-05-29T05:30:23;24.23;64.71
75799;DHT22;65035;44.726;37.764;2023-05-29T05:31:41;24.23;64.74
75799;DHT22;65035;44.726;37.764;2023-05-29T05:32:45;24.24;64.75
75799;DHT22;65035;44.726;37.764;2023-05-29T05:33:59;24.24;64.69
75799;DHT22;65035;44.726;37.764;2023-05-29T05:35:04;24.26;64.73
75799;DHT22;65035;44.726;37.764;2023-05-29T05:36:14;24.24;64.80
75799;DHT22;65035;44.726;37.764;2023-05-29T05:37:19;24.25;64.81
75799;DHT22;65035;44.726;37.764;2023-05-29T05:38:23;24.24;64.87
75799;DHT22;65035;44.726;37.764;2023-05-29T05:39:47;24.26;64.90
75799;DHT22;65035;44.726;37.764;2023-05-29T05:40:52;24.24;65.00
75799;DHT22;65035;44.726;37.764;2023-05-29T05:42:16;24.24;65.04
75799;DHT22;65035;44.726;37.764;2023-05-29T05:43:43;24.26;65.03
75799;DHT22;65035;44.726;37.764;2023-05-29T05:45:19;24.27;65.00
75799;DHT22;65035;44.726;37.764;2023-05-29T05:46:23;24.26;64.95
75799;DHT22;65035;44.726;37.764;2023-05-29T05:47:32;24.26;64.97
75799;DHT22;65035;44.726;37.764;2023-05-29T05:48:50;24.25;64.98
75799;DHT22;65035;44.726;37.764;2023-05-29T05:49:56;24.27;64.96
75799;DHT22;65035;44.726;37.764;2023-05-29T05:51:01;24.27;64.94
75799;DHT22;65035;44.726;37.764;2023-05-29T05:52:07;24.26;64.93
75799;DHT22;65035;44.726;37.764;2023-05-29T05:53:31;24.26;64.92
75799;DHT22;65035;44.726;37.764;2023-05-29T05:54:36;24.27;64.90
75799;DHT22;65035;44.726;37.764;2023-05-29T05:56:00;24.27;64.86
75799;DHT22;65035;44.726;37.764;2023-05-29T05:57:21;24.28;64.81
75799;DHT22;65035;44.726;37.764;2023-05-29T05:58:34;24.28;64.83
75799;DHT22;65035;44.726;37.764;2023-05-29T05:59:55;24.28;64.82
75799;DHT22;65035;44.726;37.764;2023-05-29T06:01:18;24.28;64.83
75799;DHT22;65035;44.726;37.764;2023-05-29T06:02:29;24.28;64.85
75799;DHT22;65035;44.726;37.764;2023-05-29T06:04:03;24.27;64.82
75799;DHT22;65035;44.726;37.764;2023-05-29T06:05:27;24.27;64.83
75799;DHT22;65035;44.726;37.764;2023-05-29T06:06:41;24.27;64.81
75799;DHT22;65035;44.726;37.764;2023-05-29T06:07:59;24.28;64.76
75799;DHT22;65035;44.726;37.764;2023-05-29T06:09:06;24.28;64.67
75799;DHT22;65035;44.726;37.764;2023-05-29T06:10:12;24.28;64.72
75799;DHT22;65035;44.726;37.764;2023-05-29T06:11:33;24.28;64.73
75799;DHT22;65035;44.726;37.764;2023-05-29T06:12:39;24.29;64.76
75799;DHT22;65035;44.726;37.764;2023-05-29T06:14:05;24.31;64.80
75799;DHT22;65035;44.726;37.764;2023-05-29T06:15:09;24.29;64.78
75799;DHT22;65035;44.726;37.764;2023-05-29T06:16:19;24.30;64.84
75799;DHT22;65035;44.726;37.764;2023-05-29T06:17:28;24.31;65.07
75799;DHT22;65035;44.726;37.764;2023-05-29T06:18:38;24.31;65.01
75799;DHT22;65035;44.726;37.764;2023-05-29T06:20:03;24.31;65.12
75799;DHT22;65035;44.726;37.764;2023-05-29T06:21:32;24.30;65.22
75799;DHT22;65035;44.726;37.764;2023-05-29T06:22:37;24.30;65.15
75799;DHT22;65035;44.726;37.764;2023-05-29T06:23:44;24.30;65.20
75799;DHT22;65035;44.726;37.764;2023-05-29T06:24:49;24.30;65.15
75799;DHT22;65035;44.726;37.764;2023-05-29T06:26:06;24.30;65.03
75799;DHT22;65035;44.726;37.764;2023-05-29T06:27:11;24.30;64.91
75799;DHT22;65035;44.726;37.764;2023-05-29T06:28:16;24.30;64.90
75799;DHT22;65035;44.726;37.764;2023-05-29T06:29:22;24.31;64.95
75799;DHT22;65035;44.726;37.764;2023-05-29T06:30:28;24.29;64.89
75799;DHT22;65035;44.726;37.764;2023-05-29T06:31:42;24.30;64.96
75799;DHT22;65035;44.726;37.764;2023-05-29T06:32:49;24.28;64.76
75799;DHT22;65035;44.726;37.764;2023-05-29T06:34:04;24.28;64.63
75799;DHT22;65035;44.726;37.764;2023-05-29T06:35:22;24.29;64.54
75799;DHT22;65035;44.726;37.764;2023-05-29T06:36:45;24.27;64.95
75799;DHT22;65035;44.726;37.764;2023-05-29T06:37:52;24.28;64.96
75799;DHT22;65035;44.726;37.764;2023-05-29T06:39:01;24.29;64.95
75799;DHT22;65035;44.726;37.764;2023-05-29T06:40:23;24.28;64.95
75799;DHT22;65035;44.726;37.764;2023-05-29T06:41:44;24.29;64.92
75799;DHT22;65035;44.726;37.764;2023-05-29T06:43:04;24.29;64.98
75799;DHT22;65035;44.726;37.764;2023-05-29T06:44:21;24.29;64.94
75799;DHT22;65035;44.726;37.764;2023-05-29T06:45:27;24.28;64.95
75799;DHT22;65035;44.726;37.764;2023-05-29T06:46:31;24.29;64.92
75799;DHT22;65035;44.726;37.764;2023-05-29T06:47:43;24.29;65.02
75799;DHT22;65035;44.726;37.764;2023-05-29T06:49:06;24.28;64.98
75799;DHT22;65035;44.726;37.764;2023-05-29T06:50:11;24.29;65.29
75799;DHT22;65035;44.726;37.764;2023-05-29T06:51:38;24.29;65.11
75799;DHT22;65035;44.726;37.764;2023-05-29T06:53:13;24.28;65.21
75799;DHT22;65035;44.726;37.764;2023-05-29T06:54:37;24.28;65.19
75799;DHT22;65035;44.726;37.764;2023-05-29T06:55:42;24.28;65.30
75799;DHT22;65035;44.726;37.764;2023-05-29T06:56:54;24.28;65.30
75799;DHT22;65035;44.726;37.764;2023-05-29T06:58:03;24.27;65.25
75799;DHT22;65035;44.726;37.764;2023-05-29T06:59:12;24.27;65.19
75799;DHT22;65035;44.726;37.764;2023-05-29T07:00:17;24.26;65.21
75799;DHT22;65035;44.726;37.764;2023-05-29T07:01:59;24.27;65.50
75799;DHT22;65035;44.726;37.764;2023-05-29T07:03:06;24.27;65.75
75799;DHT22;65035;44.726;37.764;2023-05-29T07:04:14;24.26;65.76
75799;DHT22;65035;44.726;37.764;2023-05-29T07:05:39;24.27;65.89
75799;DHT22;65035;44.726;37.764;2023-05-29T07:06:44;24.27;65.82
75799;DHT22;65035;44.726;37.764;2023-05-29T07:07:54;24.26;65.82
75799;DHT22;65035;44.726;37.764;2023-05-29T07:09:11;24.26;65.73
75799;DHT22;65035;44.726;37.764;2023-05-29T07:10:22;24.26;65.78
75799;DHT22;65035;44.726;37.764;2023-05-29T07:11:31;24.25;65.78
75799;DHT22;65035;44.726;37.764;2023-05-29T07:12:36;24.26;65.94
75799;DHT22;65035;44.726;37.764;2023-05-29T07:13:41;24.25;65.74
75799;DHT22;65035;44.726;37.764;2023-05-29T07:15:07;24.25;65.72
75799;DHT22;65035;44.726;37.764;2023-05-29T07:16:32;24.26;65.71
75799;DHT22;65035;44.726;37.764;2023-05-29T07:17:56;24.24;65.69
75799;DHT22;65035;44.726;37.764;2023-05-29T07:19:03;24.24;65.62
75799;DHT22;65035;44.726;37.764;2023-05-29T07:20:13;24.26;65.69
75799;DHT22;65035;44.726;37.764;2023-05-29T07:21:20;24.26;65.67
75799;DHT22;65035;44.726;37.764;2023-05-29T07:22:25;24.26;65.64
75799;DHT22;65035;44.726;37.764;2023-05-29T07:23:30;24.27;65.69
75799;DHT22;65035;44.726;37.764;2023-05-29T07:24:34;24.25;66.00
75799;DHT22;65035;44.726;37.764;2023-05-29T07:25:41;24.25;65.77
75799;DHT22;65035;44.726;37.764;2023-05-29T07:26:46;24.25;65.86
75799;DHT22;65035;44.726;37.764;2023-05-29T07:27:52;24.24;65.78
75799;DHT22;65035;44.726;37.764;2023-05-29T07:29:16;24.25;65.76
75799;DHT22;65035;44.726;37.764;2023-05-29T07:30:26;24.27;65.78
75799;DHT22;65035;44.726;37.764;2023-05-29T07:31:44;24.25;65.79
75799;DHT22;65035;44.726;37.764;2023-05-29T07:32:58;24.26;65.59
75799;DHT22;65035;44.726;37.764;2023-05-29T07:34:02;24.26;65.60
75799;DHT22;65035;44.726;37.764;2023-05-29T07:35:07;24.25;65.45
75799;DHT22;65035;44.726;37.764;2023-05-29T07:36:15;24.25;65.66
75799;DHT22;65035;44.726;37.764;2023-05-29T07:37:23;24.25;65.77
75799;DHT22;65035;44.726;37.764;2023-05-29T07:38:28;24.26;65.80
75799;DHT22;65035;44.726;37.764;2023-05-29T07:39:37;24.25;65.78
75799;DHT22;65035;44.726;37.764;2023-05-29T07:40:54;24.24;65.88
75799;DHT22;65035;44.726;37.764;2023-05-29T07:42:06;24.24;65.86
75799;DHT22;65035;44.726;37.764;2023-05-29T07:43:14;24.25;66.06
75799;DHT22;65035;44.726;37.764;2023-05-29T07:44:27;24.23;65.93
75799;DHT22;65035;44.726;37.764;2023-05-29T07:45:36;24.24;66.17
75799;DHT22;65035;44.726;37.764;2023-05-29T07:46:40;24.25;66.22
75799;DHT22;65035;44.726;37.764;2023-05-29T07:48:23;24.25;66.26